sensor_id;sensor_type;location;lat;lon;timestamp;P1;durP1;ratioP1;P2;durP2;ratioP2
26201;SDS011;13944;28.562;77.188;2023-02-22T00:00:33;319.10;;;211.30;;
26201;SDS011;13944;28.562;77.188;2023-02-22T00:03:13;318.97;;;210.93;;
26201;SDS011;13944;28.562;77.188;2023-02-22T00:05:41;320.57;;;212.97;;
26201;SDS011;13944;28.562;77.188;2023-02-22T00:08:15;322.20;;;206.77;;
26201;SDS011;13944;28.562;77.188;2023-02-22T00:10:42;294.87;;;202.50;;
26201;SDS011;13944;28.562;77.188;2023-02-22T00:13:10;311.90;;;208.43;;
26201;SDS011;13944;28.562;77.188;2023-02-22T00:15:38;311.00;;;209.37;;
26201;SDS011;13944;28.562;77.188;2023-02-22T00:18:10;312.23;;;209.87;;
26201;SDS011;13944;28.562;77.188;2023-02-22T00:20:38;309.03;;;206.20;;
26201;SDS011;13944;28.562;77.188;2023-02-22T00:23:06;315.53;;;211.07;;
26201;SDS011;13944;28.562;77.188;2023-02-22T00:25:34;322.53;;;211.67;;
26201;SDS011;13944;28.562;77.188;2023-02-22T00:28:01;332.67;;;216.67;;
26201;SDS011;13944;28.562;77.188;2023-02-22T00:30:29;328.50;;;215.73;;
26201;SDS011;13944;28.562;77.188;2023-02-22T00:32:58;325.37;;;213.97;;
26201;SDS011;13944;28.562;77.188;2023-02-22T00:35:26;321.53;;;214.83;;
26201;SDS011;13944;28.562;77.188;2023-02-22T00:37:57;339.70;;;225.83;;
26201;SDS011;13944;28.562;77.188;2023-02-22T00:40:26;329.93;;;216.90;;
26201;SDS011;13944;28.562;77.188;2023-02-22T00:42:55;327.43;;;214.50;;
26201;SDS011;13944;28.562;77.188;2023-02-22T00:45:23;335.13;;;217.57;;
26201;SDS011;13944;28.562;77.188;2023-02-22T00:47:50;338.13;;;224.23;;
26201;SDS011;13944;28.562;77.188;2023-02-22T00:50:19;335.07;;;220.83;;
26201;SDS011;13944;28.562;77.188;2023-02-22T00:52:46;466.90;;;230.37;;
26201;SDS011;13944;28.562;77.188;2023-02-22T00:55:14;394.30;;;225.97;;
26201;SDS011;13944;28.562;77.188;2023-02-22T00:57:42;345.63;;;222.83;;
26201;SDS011;13944;28.562;77.188;2023-02-22T01:00:13;340.73;;;227.98;;
26201;SDS011;13944;28.562;77.188;2023-02-22T01:02:41;336.13;;;219.50;;
26201;SDS011;13944;28.562;77.188;2023-02-22T01:05:09;329.07;;;216.67;;
26201;SDS011;13944;28.562;77.188;2023-02-22T01:07:41;345.47;;;218.20;;
26201;SDS011;13944;28.562;77.188;2023-02-22T01:10:09;343.47;;;218.43;;
26201;SDS011;13944;28.562;77.188;2023-02-22T01:12:36;345.77;;;216.63;;
26201;SDS011;13944;28.562;77.188;2023-02-22T01:15:04;329.17;;;222.53;;
26201;SDS011;13944;28.562;77.188;2023-02-22T01:17:35;324.30;;;217.50;;
26201;SDS011;13944;28.562;77.188;2023-02-22T01:20:03;316.17;;;211.37;;
26201;SDS011;13944;28.562;77.188;2023-02-22T01:22:40;328.50;;;236.05;;
26201;SDS011;13944;28.562;77.188;2023-02-22T01:25:09;331.13;;;223.23;;
26201;SDS011;13944;28.562;77.188;2023-02-22T01:27:36;335.97;;;227.77;;
26201;SDS011;13944;28.562;77.188;2023-02-22T01:30:07;350.10;;;237.80;;
26201;SDS011;13944;28.562;77.188;2023-02-22T01:32:46;344.83;;;231.30;;
26201;SDS011;13944;28.562;77.188;2023-02-22T01:35:16;365.83;;;237.97;;
26201;SDS011;13944;28.562;77.188;2023-02-22T01:37:43;356.63;;;234.70;;
26201;SDS011;13944;28.562;77.188;2023-02-22T01:40:15;355.08;;;248.18;;
26201;SDS011;13944;28.562;77.188;2023-02-22T01:42:42;345.43;;;229.13;;
26201;SDS011;13944;28.562;77.188;2023-02-22T01:48:23;332.20;;;230.13;;
26201;SDS011;13944;28.562;77.188;2023-02-22T01:53:26;358.63;;;245.17;;
26201;SDS011;13944;28.562;77.188;2023-02-22T01:55:54;356.27;;;239.97;;
26201;SDS011;13944;28.562;77.188;2023-02-22T01:58:22;355.27;;;241.20;;
26201;SDS011;13944;28.562;77.188;2023-02-22T02:00:50;357.37;;;241.47;;
26201;SDS011;13944;28.562;77.188;2023-02-22T02:03:21;365.13;;;239.80;;
26201;SDS011;13944;28.562;77.188;2023-02-22T02:05:52;353.87;;;237.77;;
26201;SDS011;13944;28.562;77.188;2023-02-22T02:11:03;324.20;;;214.80;;
26201;SDS011;13944;28.562;77.188;2023-02-22T02:13:30;301.67;;;204.90;;
26201;SDS011;13944;28.562;77.188;2023-02-22T02:15:57;319.48;;;216.73;;
26201;SDS011;13944;28.562;77.188;2023-02-22T02:18:25;318.17;;;208.10;;
26201;SDS011;13944;28.562;77.188;2023-02-22T02:20:58;319.10;;;207.03;;
26201;SDS011;13944;28.562;77.188;2023-02-22T02:31:38;314.60;;;203.13;;
26201;SDS011;13944;28.562;77.188;2023-02-22T02:36:40;306.15;;;208.68;;
26201;SDS011;13944;28.562;77.188;2023-02-22T02:41:48;299.43;;;196.30;;
26201;SDS011;13944;28.562;77.188;2023-02-22T02:47:08;269.10;;;180.00;;
26201;SDS011;13944;28.562;77.188;2023-02-22T02:52:04;250.93;;;172.97;;
26201;SDS011;13944;28.562;77.188;2023-02-22T02:54:32;238.07;;;164.43;;
26201;SDS011;13944;28.562;77.188;2023-02-22T02:57:01;236.43;;;158.23;;
26201;SDS011;13944;28.562;77.188;2023-02-22T02:59:30;238.77;;;158.20;;
26201;SDS011;13944;28.562;77.188;2023-02-22T03:02:19;242.00;;;161.30;;
26201;SDS011;13944;28.562;77.188;2023-02-22T03:09:53;232.70;;;158.53;;
26201;SDS011;13944;28.562;77.188;2023-02-22T03:15:18;231.33;;;152.00;;
26201;SDS011;13944;28.562;77.188;2023-02-22T03:20:20;236.77;;;152.63;;
26201;SDS011;13944;28.562;77.188;2023-02-22T03:22:50;221.40;;;148.57;;
26201;SDS011;13944;28.562;77.188;2023-02-22T03:25:23;233.20;;;153.63;;
26201;SDS011;13944;28.562;77.188;2023-02-22T03:27:55;223.40;;;150.83;;
26201;SDS011;13944;28.562;77.188;2023-02-22T03:30:36;228.23;;;153.03;;
26201;SDS011;13944;28.562;77.188;2023-02-22T03:33:06;220.30;;;145.47;;
26201;SDS011;13944;28.562;77.188;2023-02-22T03:35:36;222.43;;;152.00;;
26201;SDS011;13944;28.562;77.188;2023-02-22T03:38:05;227.77;;;149.20;;
26201;SDS011;13944;28.562;77.188;2023-02-22T03:40:34;228.40;;;153.53;;
26201;SDS011;13944;28.562;77.188;2023-02-22T03:43:04;227.63;;;146.97;;
26201;SDS011;13944;28.562;77.188;2023-02-22T03:45:33;226.73;;;149.47;;
26201;SDS011;13944;28.562;77.188;2023-02-22T03:48:05;235.30;;;152.50;;
26201;SDS011;13944;28.562;77.188;2023-02-22T03:50:35;227.23;;;151.60;;
26201;SDS011;13944;28.562;77.188;2023-02-22T03:53:03;236.33;;;150.83;;
26201;SDS011;13944;28.562;77.188;2023-02-22T03:55:32;219.80;;;140.03;;
26201;SDS011;13944;28.562;77.188;2023-02-22T03:58:00;220.77;;;141.50;;
26201;SDS011;13944;28.562;77.188;2023-02-22T04:00:29;235.27;;;148.80;;
26201;SDS011;13944;28.562;77.188;2023-02-22T04:02:56;244.50;;;152.47;;
26201;SDS011;13944;28.562;77.188;2023-02-22T04:05:23;248.00;;;147.73;;
26201;SDS011;13944;28.562;77.188;2023-02-22T04:07:54;233.83;;;147.07;;
26201;SDS011;13944;28.562;77.188;2023-02-22T04:10:22;226.33;;;145.33;;
26201;SDS011;13944;28.562;77.188;2023-02-22T04:12:49;232.43;;;147.90;;
26201;SDS011;13944;28.562;77.188;2023-02-22T04:15:18;238.57;;;146.80;;
26201;SDS011;13944;28.562;77.188;2023-02-22T04:17:45;233.33;;;151.20;;
26201;SDS011;13944;28.562;77.188;2023-02-22T04:20:12;238.27;;;149.13;;
26201;SDS011;13944;28.562;77.188;2023-02-22T04:22:40;225.33;;;144.97;;
26201;SDS011;13944;28.562;77.188;2023-02-22T04:25:07;219.10;;;140.60;;
26201;SDS011;13944;28.562;77.188;2023-02-22T04:27:34;219.47;;;143.40;;
26201;SDS011;13944;28.562;77.188;2023-02-22T04:30:01;224.53;;;142.63;;
26201;SDS011;13944;28.562;77.188;2023-02-22T04:32:28;219.30;;;141.27;;
26201;SDS011;13944;28.562;77.188;2023-02-22T04:34:55;220.30;;;139.37;;
26201;SDS011;13944;28.562;77.188;2023-02-22T04:37:25;228.13;;;141.27;;
26201;SDS011;13944;28.562;77.188;2023-02-22T04:39:52;244.03;;;144.03;;
26201;SDS011;13944;28.562;77.188;2023-02-22T04:42:19;234.90;;;143.23;;
26201;SDS011;13944;28.562;77.188;2023-02-22T04:44:46;235.13;;;142.77;;
26201;SDS011;13944;28.562;77.188;2023-02-22T04:47:15;232.70;;;147.63;;
26201;SDS011;13944;28.562;77.188;2023-02-22T04:49:42;227.00;;;142.40;;
26201;SDS011;13944;28.562;77.188;2023-02-22T04:52:10;230.82;;;152.30;;
26201;SDS011;13944;28.562;77.188;2023-02-22T04:54:37;233.97;;;147.77;;
26201;SDS011;13944;28.562;77.188;2023-02-22T04:57:04;240.65;;;158.15;;
26201;SDS011;13944;28.562;77.188;2023-02-22T04:59:31;241.10;;;147.17;;
26201;SDS011;13944;28.562;77.188;2023-02-22T05:01:58;226.73;;;145.73;;
26201;SDS011;13944;28.562;77.188;2023-02-22T05:04:25;237.03;;;148.33;;
26201;SDS011;13944;28.562;77.188;2023-02-22T05:06:53;236.67;;;143.13;;
26201;SDS011;13944;28.562;77.188;2023-02-22T05:09:20;239.87;;;147.27;;
26201;SDS011;13944;28.562;77.188;2023-02-22T05:11:47;223.40;;;144.67;;
26201;SDS011;13944;28.562;77.188;2023-02-22T05:14:14;235.80;;;146.70;;
26201;SDS011;13944;28.562;77.188;2023-02-22T05:16:41;237.63;;;146.83;;
26201;SDS011;13944;28.562;77.188;2023-02-22T05:19:08;234.77;;;145.20;;
26201;SDS011;13944;28.562;77.188;2023-02-22T05:21:36;250.77;;;151.60;;
26201;SDS011;13944;28.562;77.188;2023-02-22T05:24:04;236.50;;;148.33;;
26201;SDS011;13944;28.562;77.188;2023-02-22T05:26:32;249.77;;;159.05;;
26201;SDS011;13944;28.562;77.188;2023-02-22T05:28:59;247.80;;;152.40;;
26201;SDS011;13944;28.562;77.188;2023-02-22T05:31:26;243.47;;;151.33;;
26201;SDS011;13944;28.562;77.188;2023-02-22T05:33:53;244.13;;;149.57;;
26201;SDS011;13944;28.562;77.188;2023-02-22T05:36:20;239.80;;;148.90;;
26201;SDS011;13944;28.562;77.188;2023-02-22T05:38:47;238.80;;;148.83;;
26201;SDS011;13944;28.562;77.188;2023-02-22T05:41:14;238.30;;;151.03;;
26201;SDS011;13944;28.562;77.188;2023-02-22T05:43:41;239.47;;;148.70;;
26201;SDS011;13944;28.562;77.188;2023-02-22T05:46:08;233.50;;;154.68;;
26201;SDS011;13944;28.562;77.188;2023-02-22T05:48:38;218.23;;;139.43;;
26201;SDS011;13944;28.562;77.188;2023-02-22T05:51:05;208.53;;;133.27;;
26201;SDS011;13944;28.562;77.188;2023-02-22T05:53:34;201.27;;;131.47;;
26201;SDS011;13944;28.562;77.188;2023-02-22T05:56:01;198.87;;;131.07;;
26201;SDS011;13944;28.562;77.188;2023-02-22T05:58:28;204.50;;;130.60;;
26201;SDS011;13944;28.562;77.188;2023-02-22T06:00:55;227.53;;;147.07;;
26201;SDS011;13944;28.562;77.188;2023-02-22T06:03:22;223.70;;;145.83;;
26201;SDS011;13944;28.562;77.188;2023-02-22T06:05:49;213.37;;;139.43;;
26201;SDS011;13944;28.562;77.188;2023-02-22T06:08:16;206.47;;;137.47;;
26201;SDS011;13944;28.562;77.188;2023-02-22T06:10:43;214.27;;;139.43;;
26201;SDS011;13944;28.562;77.188;2023-02-22T06:13:10;208.90;;;140.60;;
26201;SDS011;13944;28.562;77.188;2023-02-22T06:15:37;208.10;;;140.97;;
26201;SDS011;13944;28.562;77.188;2023-02-22T06:18:04;206.07;;;138.00;;
26201;SDS011;13944;28.562;77.188;2023-02-22T06:20:31;228.18;;;158.63;;
26201;SDS011;13944;28.562;77.188;2023-02-22T06:22:59;199.70;;;131.67;;
26201;SDS011;13944;28.562;77.188;2023-02-22T06:25:27;209.50;;;142.38;;
26201;SDS011;13944;28.562;77.188;2023-02-22T06:27:58;199.53;;;132.10;;
26201;SDS011;13944;28.562;77.188;2023-02-22T06:30:26;206.25;;;137.27;;
26201;SDS011;13944;28.562;77.188;2023-02-22T06:32:53;189.82;;;125.90;;
26201;SDS011;13944;28.562;77.188;2023-02-22T06:35:20;187.52;;;124.03;;
26201;SDS011;13944;28.562;77.188;2023-02-22T06:37:48;211.13;;;150.23;;
26201;SDS011;13944;28.562;77.188;2023-02-22T06:40:15;215.43;;;144.18;;
26201;SDS011;13944;28.562;77.188;2023-02-22T06:42:42;192.35;;;133.65;;
26201;SDS011;13944;28.562;77.188;2023-02-22T06:45:09;195.43;;;131.85;;
26201;SDS011;13944;28.562;77.188;2023-02-22T06:47:38;206.90;;;140.68;;
26201;SDS011;13944;28.562;77.188;2023-02-22T06:50:06;190.38;;;130.95;;
26201;SDS011;13944;28.562;77.188;2023-02-22T06:52:33;203.45;;;135.10;;
26201;SDS011;13944;28.562;77.188;2023-02-22T06:55:00;226.63;;;143.32;;
26201;SDS011;13944;28.562;77.188;2023-02-22T06:57:27;215.63;;;140.77;;
26201;SDS011;13944;28.562;77.188;2023-02-22T06:59:54;212.77;;;141.13;;
26201;SDS011;13944;28.562;77.188;2023-02-22T07:02:22;190.02;;;128.25;;
26201;SDS011;13944;28.562;77.188;2023-02-22T07:04:49;221.60;;;144.73;;
26201;SDS011;13944;28.562;77.188;2023-02-22T07:07:16;227.10;;;146.98;;
26201;SDS011;13944;28.562;77.188;2023-02-22T07:09:44;219.80;;;144.82;;
26201;SDS011;13944;28.562;77.188;2023-02-22T07:12:12;223.77;;;145.20;;
26201;SDS011;13944;28.562;77.188;2023-02-22T07:14:39;214.95;;;141.35;;
26201;SDS011;13944;28.562;77.188;2023-02-22T07:17:06;223.82;;;148.48;;
26201;SDS011;13944;28.562;77.188;2023-02-22T07:19:33;226.13;;;152.18;;
26201;SDS011;13944;28.562;77.188;2023-02-22T07:22:00;230.55;;;149.90;;
26201;SDS011;13944;28.562;77.188;2023-02-22T07:24:27;231.75;;;150.30;;
26201;SDS011;13944;28.562;77.188;2023-02-22T07:26:54;224.70;;;149.07;;
26201;SDS011;13944;28.562;77.188;2023-02-22T07:29:21;210.48;;;142.00;;
26201;SDS011;13944;28.562;77.188;2023-02-22T07:31:48;207.32;;;135.07;;
26201;SDS011;13944;28.562;77.188;2023-02-22T07:34:16;212.32;;;142.60;;
26201;SDS011;13944;28.562;77.188;2023-02-22T07:36:43;209.65;;;142.88;;
26201;SDS011;13944;28.562;77.188;2023-02-22T07:39:10;205.75;;;133.60;;
26201;SDS011;13944;28.562;77.188;2023-02-22T07:41:37;200.93;;;138.60;;
26201;SDS011;13944;28.562;77.188;2023-02-22T07:44:04;219.27;;;142.93;;
26201;SDS011;13944;28.562;77.188;2023-02-22T07:46:31;213.80;;;141.73;;
26201;SDS011;13944;28.562;77.188;2023-02-22T07:48:58;206.50;;;136.43;;
26201;SDS011;13944;28.562;77.188;2023-02-22T07:51:25;209.65;;;140.05;;
26201;SDS011;13944;28.562;77.188;2023-02-22T07:53:52;193.40;;;131.45;;
26201;SDS011;13944;28.562;77.188;2023-02-22T07:56:19;191.45;;;127.30;;
26201;SDS011;13944;28.562;77.188;2023-02-22T07:58:46;189.18;;;131.15;;
26201;SDS011;13944;28.562;77.188;2023-02-22T08:01:13;188.70;;;125.20;;
26201;SDS011;13944;28.562;77.188;2023-02-22T08:03:40;191.00;;;132.20;;
26201;SDS011;13944;28.562;77.188;2023-02-22T08:06:07;175.55;;;119.97;;
26201;SDS011;13944;28.562;77.188;2023-02-22T08:08:36;171.77;;;122.05;;
26201;SDS011;13944;28.562;77.188;2023-02-22T08:11:03;177.05;;;126.95;;
26201;SDS011;13944;28.562;77.188;2023-02-22T08:13:30;169.98;;;118.15;;
26201;SDS011;13944;28.562;77.188;2023-02-22T08:15:57;168.07;;;114.35;;
26201;SDS011;13944;28.562;77.188;2023-02-22T08:18:24;171.35;;;116.03;;
26201;SDS011;13944;28.562;77.188;2023-02-22T08:20:52;173.25;;;116.38;;
26201;SDS011;13944;28.562;77.188;2023-02-22T08:23:20;179.40;;;118.07;;
26201;SDS011;13944;28.562;77.188;2023-02-22T08:25:47;167.83;;;121.47;;
26201;SDS011;13944;28.562;77.188;2023-02-22T08:28:16;184.68;;;119.97;;
26201;SDS011;13944;28.562;77.188;2023-02-22T08:30:44;160.18;;;101.82;;
26201;SDS011;13944;28.562;77.188;2023-02-22T08:33:12;176.40;;;116.38;;
26201;SDS011;13944;28.562;77.188;2023-02-22T08:35:44;164.95;;;111.93;;
26201;SDS011;13944;28.562;77.188;2023-02-22T08:38:15;174.70;;;118.18;;
26201;SDS011;13944;28.562;77.188;2023-02-22T08:40:42;182.02;;;118.60;;
26201;SDS011;13944;28.562;77.188;2023-02-22T08:43:09;177.38;;;116.25;;
26201;SDS011;13944;28.562;77.188;2023-02-22T08:45:40;166.40;;;111.82;;
26201;SDS011;13944;28.562;77.188;2023-02-22T08:48:10;173.18;;;113.40;;
26201;SDS011;13944;28.562;77.188;2023-02-22T08:50:38;166.98;;;113.55;;
26201;SDS011;13944;28.562;77.188;2023-02-22T08:53:07;160.15;;;109.53;;
26201;SDS011;13944;28.562;77.188;2023-02-22T08:55:35;153.13;;;99.88;;
26201;SDS011;13944;28.562;77.188;2023-02-22T08:58:03;145.88;;;94.35;;
26201;SDS011;13944;28.562;77.188;2023-02-22T09:00:33;152.65;;;99.78;;
26201;SDS011;13944;28.562;77.188;2023-02-22T09:03:01;150.95;;;104.25;;
26201;SDS011;13944;28.562;77.188;2023-02-22T09:05:29;148.07;;;98.65;;
26201;SDS011;13944;28.562;77.188;2023-02-22T09:07:56;148.68;;;95.10;;
26201;SDS011;13944;28.562;77.188;2023-02-22T09:10:25;144.70;;;98.93;;
26201;SDS011;13944;28.562;77.188;2023-02-22T09:12:55;130.77;;;88.35;;
26201;SDS011;13944;28.562;77.188;2023-02-22T09:15:23;131.18;;;87.90;;
26201;SDS011;13944;28.562;77.188;2023-02-22T09:17:51;118.60;;;81.82;;
26201;SDS011;13944;28.562;77.188;2023-02-22T09:20:19;131.70;;;83.35;;
26201;SDS011;13944;28.562;77.188;2023-02-22T09:22:47;127.63;;;80.75;;
26201;SDS011;13944;28.562;77.188;2023-02-22T09:25:14;124.63;;;83.25;;
26201;SDS011;13944;28.562;77.188;2023-02-22T09:27:41;114.38;;;75.60;;
26201;SDS011;13944;28.562;77.188;2023-02-22T09:30:42;109.45;;;69.47;;
26201;SDS011;13944;28.562;77.188;2023-02-22T09:33:03;113.95;;;70.80;;
26201;SDS011;13944;28.562;77.188;2023-02-22T09:35:31;101.18;;;64.47;;
26201;SDS011;13944;28.562;77.188;2023-02-22T09:38:03;98.85;;;61.65;;
26201;SDS011;13944;28.562;77.188;2023-02-22T09:40:31;92.80;;;60.58;;
26201;SDS011;13944;28.562;77.188;2023-02-22T09:48:21;87.72;;;55.50;;
26201;SDS011;13944;28.562;77.188;2023-02-22T09:50:50;165.32;;;135.35;;
26201;SDS011;13944;28.562;77.188;2023-02-22T09:53:31;81.63;;;60.92;;
26201;SDS011;13944;28.562;77.188;2023-02-22T09:56:03;70.82;;;48.75;;
26201;SDS011;13944;28.562;77.188;2023-02-22T09:58:37;73.93;;;45.58;;
26201;SDS011;13944;28.562;77.188;2023-02-22T10:03:49;61.53;;;40.80;;
26201;SDS011;13944;28.562;77.188;2023-02-22T10:06:18;75.25;;;45.45;;
26201;SDS011;13944;28.562;77.188;2023-02-22T10:08:47;71.82;;;47.58;;
26201;SDS011;13944;28.562;77.188;2023-02-22T10:11:31;82.35;;;54.03;;
26201;SDS011;13944;28.562;77.188;2023-02-22T10:17:00;91.63;;;55.15;;
26201;SDS011;13944;28.562;77.188;2023-02-22T10:22:15;68.70;;;44.60;;
26201;SDS011;13944;28.562;77.188;2023-02-22T10:24:50;85.25;;;50.97;;
26201;SDS011;13944;28.562;77.188;2023-02-22T10:27:31;86.05;;;49.35;;
26201;SDS011;13944;28.562;77.188;2023-02-22T10:32:30;60.58;;;38.15;;
26201;SDS011;13944;28.562;77.188;2023-02-22T10:34:57;70.70;;;42.75;;
26201;SDS011;13944;28.562;77.188;2023-02-22T10:37:33;52.78;;;33.60;;
26201;SDS011;13944;28.562;77.188;2023-02-22T10:40:02;48.67;;;30.83;;
26201;SDS011;13944;28.562;77.188;2023-02-22T10:42:37;61.28;;;32.90;;
26201;SDS011;13944;28.562;77.188;2023-02-22T10:45:04;56.17;;;33.88;;
26201;SDS011;13944;28.562;77.188;2023-02-22T10:47:32;55.45;;;35.17;;
26201;SDS011;13944;28.562;77.188;2023-02-22T10:49:59;55.13;;;35.28;;
26201;SDS011;13944;28.562;77.188;2023-02-22T10:52:30;48.58;;;31.83;;
26201;SDS011;13944;28.562;77.188;2023-02-22T10:54:58;56.53;;;35.03;;
26201;SDS011;13944;28.562;77.188;2023-02-22T10:57:30;52.75;;;33.40;;
26201;SDS011;13944;28.562;77.188;2023-02-22T11:03:35;57.63;;;38.72;;
26201;SDS011;13944;28.562;77.188;2023-02-22T11:05:38;61.60;;;36.90;;
26201;SDS011;13944;28.562;77.188;2023-02-22T11:08:17;52.53;;;33.03;;
26201;SDS011;13944;28.562;77.188;2023-02-22T11:10:48;61.42;;;37.92;;
26201;SDS011;13944;28.562;77.188;2023-02-22T11:13:17;62.95;;;41.08;;
26201;SDS011;13944;28.562;77.188;2023-02-22T11:15:44;64.57;;;38.90;;
26201;SDS011;13944;28.562;77.188;2023-02-22T11:18:44;54.40;;;33.67;;
26201;SDS011;13944;28.562;77.188;2023-02-22T11:21:05;50.75;;;32.95;;
26201;SDS011;13944;28.562;77.188;2023-02-22T11:23:34;56.97;;;34.00;;
26201;SDS011;13944;28.562;77.188;2023-02-22T11:26:06;54.00;;;34.03;;
26201;SDS011;13944;28.562;77.188;2023-02-22T11:28:34;53.50;;;34.50;;
26201;SDS011;13944;28.562;77.188;2023-02-22T11:31:12;52.60;;;33.58;;
26201;SDS011;13944;28.562;77.188;2023-02-22T11:33:45;50.97;;;33.55;;
26201;SDS011;13944;28.562;77.188;2023-02-22T11:36:14;55.95;;;35.63;;
26201;SDS011;13944;28.562;77.188;2023-02-22T11:38:55;72.67;;;37.17;;
26201;SDS011;13944;28.562;77.188;2023-02-22T11:41:26;67.93;;;35.03;;
26201;SDS011;13944;28.562;77.188;2023-02-22T11:43:54;76.47;;;33.20;;
26201;SDS011;13944;28.562;77.188;2023-02-22T11:46:36;79.97;;;33.97;;
26201;SDS011;13944;28.562;77.188;2023-02-22T11:49:09;58.15;;;34.35;;
26201;SDS011;13944;28.562;77.188;2023-02-22T11:52:20;59.65;;;33.22;;
26201;SDS011;13944;28.562;77.188;2023-02-22T11:54:34;61.47;;;37.70;;
26201;SDS011;13944;28.562;77.188;2023-02-22T12:04:51;52.53;;;35.38;;
26201;SDS011;13944;28.562;77.188;2023-02-22T12:19:55;56.13;;;34.10;;
26201;SDS011;13944;28.562;77.188;2023-02-22T12:22:34;62.40;;;36.80;;
26201;SDS011;13944;28.562;77.188;2023-02-22T12:27:43;73.50;;;37.38;;
26201;SDS011;13944;28.562;77.188;2023-02-22T12:30:17;67.43;;;37.38;;
26201;SDS011;13944;28.562;77.188;2023-02-22T12:35:20;75.60;;;41.80;;
26201;SDS011;13944;28.562;77.188;2023-02-22T12:40:45;87.40;;;47.97;;
26201;SDS011;13944;28.562;77.188;2023-02-22T12:43:16;93.57;;;46.35;;
26201;SDS011;13944;28.562;77.188;2023-02-22T12:45:59;89.82;;;48.60;;
26201;SDS011;13944;28.562;77.188;2023-02-22T12:48:30;93.45;;;47.67;;
26201;SDS011;13944;28.562;77.188;2023-02-22T12:51:14;88.00;;;49.90;;
26201;SDS011;13944;28.562;77.188;2023-02-22T12:53:43;86.47;;;48.03;;
26201;SDS011;13944;28.562;77.188;2023-02-22T13:01:36;96.43;;;51.10;;
26201;SDS011;13944;28.562;77.188;2023-02-22T13:04:04;101.75;;;50.65;;
26201;SDS011;13944;28.562;77.188;2023-02-22T13:06:45;105.57;;;51.40;;
26201;SDS011;13944;28.562;77.188;2023-02-22T13:48:06;125.82;;;67.43;;
26201;SDS011;13944;28.562;77.188;2023-02-22T13:53:14;118.75;;;66.90;;
26201;SDS011;13944;28.562;77.188;2023-02-22T13:55:42;123.22;;;67.28;;
26201;SDS011;13944;28.562;77.188;2023-02-22T13:58:12;118.28;;;65.95;;
26201;SDS011;13944;28.562;77.188;2023-02-22T14:00:56;139.05;;;70.50;;
26201;SDS011;13944;28.562;77.188;2023-02-22T14:06:01;130.68;;;69.60;;
26201;SDS011;13944;28.562;77.188;2023-02-22T14:14:07;130.90;;;69.10;;
26201;SDS011;13944;28.562;77.188;2023-02-22T14:16:26;124.25;;;67.85;;
26201;SDS011;13944;28.562;77.188;2023-02-22T14:21:53;124.73;;;73.17;;
26201;SDS011;13944;28.562;77.188;2023-02-22T14:24:21;135.10;;;72.82;;
26201;SDS011;13944;28.562;77.188;2023-02-22T14:27:01;130.27;;;74.97;;
26201;SDS011;13944;28.562;77.188;2023-02-22T14:29:28;124.82;;;75.13;;
26201;SDS011;13944;28.562;77.188;2023-02-22T14:34:38;126.55;;;80.88;;
26201;SDS011;13944;28.562;77.188;2023-02-22T14:37:07;136.43;;;81.05;;
26201;SDS011;13944;28.562;77.188;2023-02-22T14:42:18;135.18;;;84.32;;
26201;SDS011;13944;28.562;77.188;2023-02-22T14:44:50;151.75;;;85.65;;
26201;SDS011;13944;28.562;77.188;2023-02-22T14:47:38;152.15;;;86.30;;
26201;SDS011;13944;28.562;77.188;2023-02-22T14:50:12;153.82;;;89.60;;
26201;SDS011;13944;28.562;77.188;2023-02-22T14:52:40;150.23;;;88.63;;
26201;SDS011;13944;28.562;77.188;2023-02-22T14:57:48;139.80;;;88.43;;
26201;SDS011;13944;28.562;77.188;2023-02-22T15:01:00;138.30;;;89.88;;
26201;SDS011;13944;28.562;77.188;2023-02-22T15:05:52;167.60;;;94.97;;
26201;SDS011;13944;28.562;77.188;2023-02-22T15:08:19;155.38;;;96.40;;
26201;SDS011;13944;28.562;77.188;2023-02-22T15:10:53;155.27;;;96.55;;
26201;SDS011;13944;28.562;77.188;2023-02-22T15:13:21;151.13;;;97.00;;
26201;SDS011;13944;28.562;77.188;2023-02-22T15:15:58;157.77;;;100.22;;
26201;SDS011;13944;28.562;77.188;2023-02-22T15:18:27;164.80;;;102.40;;
26201;SDS011;13944;28.562;77.188;2023-02-22T15:20:57;170.85;;;105.00;;
26201;SDS011;13944;28.562;77.188;2023-02-22T15:23:28;167.63;;;107.22;;
26201;SDS011;13944;28.562;77.188;2023-02-22T15:25:57;166.40;;;106.32;;
26201;SDS011;13944;28.562;77.188;2023-02-22T15:28:28;168.40;;;104.30;;
26201;SDS011;13944;28.562;77.188;2023-02-22T15:31:15;173.23;;;109.07;;
26201;SDS011;13944;28.562;77.188;2023-02-22T15:33:42;168.68;;;102.10;;
26201;SDS011;13944;28.562;77.188;2023-02-22T15:36:12;181.90;;;106.05;;
26201;SDS011;13944;28.562;77.188;2023-02-22T15:38:45;178.70;;;108.60;;
26201;SDS011;13944;28.562;77.188;2023-02-22T15:41:24;174.90;;;107.55;;
26201;SDS011;13944;28.562;77.188;2023-02-22T15:44:08;175.05;;;110.72;;
26201;SDS011;13944;28.562;77.188;2023-02-22T15:46:38;189.80;;;112.03;;
26201;SDS011;13944;28.562;77.188;2023-02-22T15:49:07;196.45;;;119.47;;
26201;SDS011;13944;28.562;77.188;2023-02-22T15:51:34;202.45;;;120.68;;
26201;SDS011;13944;28.562;77.188;2023-02-22T15:54:02;209.93;;;124.30;;
26201;SDS011;13944;28.562;77.188;2023-02-22T15:56:40;208.60;;;127.63;;
26201;SDS011;13944;28.562;77.188;2023-02-22T15:59:15;214.25;;;129.95;;
26201;SDS011;13944;28.562;77.188;2023-02-22T16:01:44;206.10;;;130.02;;
26201;SDS011;13944;28.562;77.188;2023-02-22T16:04:18;219.33;;;130.93;;
26201;SDS011;13944;28.562;77.188;2023-02-22T16:06:45;211.30;;;133.32;;
26201;SDS011;13944;28.562;77.188;2023-02-22T16:09:14;206.82;;;130.88;;
26201;SDS011;13944;28.562;77.188;2023-02-22T16:11:42;217.53;;;132.43;;
26201;SDS011;13944;28.562;77.188;2023-02-22T16:17:36;203.30;;;126.10;;
26201;SDS011;13944;28.562;77.188;2023-02-22T16:22:49;194.13;;;120.90;;
26201;SDS011;13944;28.562;77.188;2023-02-22T16:27:54;196.33;;;119.47;;
26201;SDS011;13944;28.562;77.188;2023-02-22T16:32:50;207.53;;;125.07;;
26201;SDS011;13944;28.562;77.188;2023-02-22T16:35:17;207.90;;;126.47;;
26201;SDS011;13944;28.562;77.188;2023-02-22T16:37:51;202.17;;;124.40;;
26201;SDS011;13944;28.562;77.188;2023-02-22T16:40:21;203.50;;;124.97;;
26201;SDS011;13944;28.562;77.188;2023-02-22T16:42:49;205.73;;;123.73;;
26201;SDS011;13944;28.562;77.188;2023-02-22T16:45:16;212.90;;;125.37;;
26201;SDS011;13944;28.562;77.188;2023-02-22T16:47:44;217.03;;;128.20;;
26201;SDS011;13944;28.562;77.188;2023-02-22T16:50:11;214.50;;;127.73;;